Time;durP1;ratioP1;P1;durP2;ratioP2;P2;SDS_P1;SDS_P2;PMS_P1;PMS_P2;Temp;Humidity;BMP_temperature;BMP_pressure;BME280_temperature;BME280_humidity;BME280_pressure;Samples;Min_cycle;Max_cycle;Signal;HPM_P1;HPM_P2
2021/12/02 00:00:44;;;;;;;2.93;2.43;;;;;;;;;;5058199;28;20407;-68
2021/12/02 00:03:09;;;;;;;3.20;2.40;;;;;;;;;;5056420;28;20778;-67
2021/12/02 00:05:35;;;;;;;4.47;3.40;;;;;;;;;;5053491;28;20809;-67
2021/12/02 00:08:01;;;;;;;5.17;3.53;;;;;;;;;;5054105;28;20395;-68
2021/12/02 00:10:31;;;;;;;6.70;4.70;;;;;;;;;;5056173;28;20530;-67
2021/12/02 00:12:59;;;;;;;7.55;4.85;;;;;;;;;;5036791;28;20427;-79
2021/12/02 00:15:29;;;;;;;9.27;5.73;;;;;;;;;;5056276;28;20407;-68
2021/12/02 00:18:08;;;;;;;10.30;6.32;;;;;;;;;;5056599;28;20399;-67
2021/12/02 00:23:39;;;;;;;9.13;5.45;;;;;;;;;;5054276;28;20569;-67
2021/12/02 00:26:15;;;;;;;7.10;4.30;;;;;;;;;;5054281;28;20423;-67
2021/12/02 00:28:41;;;;;;;4.35;2.80;;;;;;;;;;5056570;28;20881;-68
2021/12/02 00:31:12;;;;;;;3.40;2.23;;;;;;;;;;5057687;28;20430;-68
2021/12/02 00:33:39;;;;;;;2.53;2.03;;;;;;;;;;5056114;28;20773;-67
2021/12/02 00:36:04;;;;;;;2.30;1.90;;;;;;;;;;5057326;28;20494;-68
2021/12/02 00:38:30;;;;;;;2.60;2.00;;;;;;;;;;5054172;28;20495;-67
2021/12/02 00:40:55;;;;;;;2.60;2.10;;;;;;;;;;5053432;28;20400;-67
2021/12/02 00:43:20;;;;;;;2.27;1.83;;;;;;;;;;5053407;28;20439;-68
2021/12/02 00:45:46;;;;;;;2.50;2.03;;;;;;;;;;5055537;28;20884;-67
2021/12/02 00:48:13;;;;;;;3.05;2.50;;;;;;;;;;5055506;28;20460;-68
2021/12/02 00:50:39;;;;;;;2.08;1.88;;;;;;;;;;5055608;28;21222;-68
2021/12/02 00:53:09;;;;;;;2.25;1.73;;;;;;;;;;5054744;28;20861;-67
2021/12/02 00:55:36;;;;;;;2.10;1.60;;;;;;;;;;5056206;28;20469;-70
2021/12/02 00:58:01;;;;;;;2.30;1.65;;;;;;;;;;5054919;28;20398;-67
2021/12/02 01:00:27;;;;;;;1.60;1.35;;;;;;;;;;5052116;28;20399;-67
2021/12/02 01:02:52;;;;;;;2.50;1.90;;;;;;;;;;5053992;28;20464;-68
2021/12/02 01:05:18;;;;;;;3.77;2.90;;;;;;;;;;5055912;28;20984;-67
2021/12/02 01:07:43;;;;;;;4.20;3.28;;;;;;;;;;5053206;28;20916;-67
2021/12/02 01:10:08;;;;;;;5.83;4.20;;;;;;;;;;5054801;28;20434;-68
2021/12/02 01:12:35;;;;;;;4.90;3.63;;;;;;;;;;5063240;28;20490;-77
2021/12/02 01:15:00;;;;;;;4.70;3.78;;;;;;;;;;5063377;28;20428;-67
2021/12/02 01:17:25;;;;;;;8.97;6.00;;;;;;;;;;5076192;28;20803;-67
2021/12/02 01:19:51;;;;;;;10.20;7.10;;;;;;;;;;5074586;28;20468;-67
2021/12/02 01:22:16;;;;;;;10.47;7.27;;;;;;;;;;5074516;28;20405;-67
2021/12/02 01:24:42;;;;;;;9.90;7.43;;;;;;;;;;5075458;28;20543;-68
2021/12/02 01:27:09;;;;;;;8.27;6.20;;;;;;;;;;5073472;28;20926;-66
2021/12/02 01:29:35;;;;;;;7.65;5.60;;;;;;;;;;5073166;28;20393;-67
2021/12/02 01:32:05;;;;;;;6.28;5.00;;;;;;;;;;5075153;28;20426;-67
2021/12/02 01:34:31;;;;;;;7.55;5.82;;;;;;;;;;5073809;28;20858;-67
2021/12/02 01:36:56;;;;;;;7.90;6.10;;;;;;;;;;5074564;28;20510;-67
2021/12/02 01:39:22;;;;;;;6.83;5.80;;;;;;;;;;5072613;28;20389;-67
2021/12/02 01:41:49;;;;;;;7.32;6.00;;;;;;;;;;5071366;28;20753;-68
2021/12/02 01:44:15;;;;;;;7.70;6.22;;;;;;;;;;5074782;28;20769;-67
2021/12/02 01:46:42;;;;;;;6.70;5.28;;;;;;;;;;5073515;28;20393;-67
2021/12/02 01:49:08;;;;;;;9.20;6.38;;;;;;;;;;5071589;28;20398;-67
2021/12/02 01:51:54;;;;;;;9.63;7.10;;;;;;;;;;5073684;28;20408;-67
2021/12/02 01:54:21;;;;;;;11.82;8.88;;;;;;;;;;5075340;28;20397;-69
2021/12/02 01:56:48;;;;;;;8.57;6.70;;;;;;;;;;5076610;28;20398;-68
2021/12/02 01:59:18;;;;;;;7.85;6.22;;;;;;;;;;5076117;28;20436;-68
2021/12/02 02:01:44;;;;;;;6.57;5.50;;;;;;;;;;5092308;28;20425;-68
2021/12/02 02:04:10;;;;;;;7.20;5.50;;;;;;;;;;5075659;28;20492;-67
2021/12/02 02:06:55;;;;;;;8.90;6.63;;;;;;;;;;5073962;28;20497;-68
2021/12/02 02:09:22;;;;;;;7.75;6.10;;;;;;;;;;5072232;28;20504;-67
2021/12/02 02:11:47;;;;;;;7.22;5.95;;;;;;;;;;5074783;28;20400;-69
2021/12/02 02:14:13;;;;;;;7.17;6.17;;;;;;;;;;5058262;28;20494;-67
2021/12/02 02:16:39;;;;;;;8.45;6.60;;;;;;;;;;5073007;28;20386;-67
2021/12/02 02:19:05;;;;;;;8.35;7.18;;;;;;;;;;5071581;28;21099;-67
2021/12/02 02:21:34;;;;;;;9.40;7.68;;;;;;;;;;5073809;28;20900;-67
2021/12/02 02:24:00;;;;;;;8.40;6.90;;;;;;;;;;5073647;28;20501;-67
2021/12/02 02:26:30;;;;;;;8.45;6.60;;;;;;;;;;5077997;28;20425;-68
2021/12/02 02:28:56;;;;;;;8.13;6.85;;;;;;;;;;5076351;28;20390;-68
2021/12/02 02:31:21;;;;;;;10.43;7.88;;;;;;;;;;5074906;28;20749;-67
2021/12/02 02:33:51;;;;;;;9.50;8.00;;;;;;;;;;5092511;28;20430;-67
2021/12/02 02:36:17;;;;;;;11.57;9.00;;;;;;;;;;5078045;28;20381;-67
2021/12/02 02:38:45;;;;;;;10.73;8.30;;;;;;;;;;5078236;28;20390;-67
2021/12/02 02:41:12;;;;;;;12.20;9.60;;;;;;;;;;5077694;28;20397;-67
2021/12/02 02:43:37;;;;;;;11.85;9.27;;;;;;;;;;5078857;28;20421;-68
2021/12/02 02:46:02;;;;;;;10.73;8.10;;;;;;;;;;5076751;28;20437;-67
2021/12/02 02:48:31;;;;;;;10.13;7.57;;;;;;;;;;5075491;28;20451;-67
2021/12/02 02:50:56;;;;;;;8.20;6.90;;;;;;;;;;5075646;28;20413;-67
2021/12/02 02:53:23;;;;;;;6.97;6.23;;;;;;;;;;5077657;28;20784;-68
2021/12/02 03:01:21;;;;;;;6.90;5.90;;;;;;;;;;5079548;28;20474;-67
2021/12/02 03:04:10;;;;;;;5.88;4.90;;;;;;;;;;5078667;28;20410;-67
2021/12/02 03:07:02;;;;;;;5.95;5.35;;;;;;;;;;5077869;28;20895;-67
2021/12/02 03:16:37;;;;;;;13.15;10.05;;;;;;;;;;5041585;28;20430;-67
2021/12/02 03:17:23;;;;;;;9.77;7.40;;;;;;;;;;5057027;28;20399;-67
2021/12/02 03:19:48;;;;;;;7.47;6.07;;;;;;;;;;5057339;28;20406;-68
2021/12/02 03:22:14;;;;;;;6.15;5.45;;;;;;;;;;5057379;28;20434;-67
2021/12/02 03:24:39;;;;;;;6.80;5.60;;;;;;;;;;5057898;28;20439;-67
2021/12/02 03:27:05;;;;;;;6.07;5.00;;;;;;;;;;5058373;28;20509;-67
2021/12/02 03:29:31;;;;;;;7.18;6.00;;;;;;;;;;5054711;28;20423;-67
2021/12/02 03:31:56;;;;;;;8.57;6.20;;;;;;;;;;5053814;28;20451;-67
2021/12/02 03:34:21;;;;;;;8.60;6.83;;;;;;;;;;5056514;28;20411;-67
2021/12/02 03:36:47;;;;;;;10.07;7.33;;;;;;;;;;5056787;28;20399;-68
2021/12/02 03:39:12;;;;;;;8.80;7.53;;;;;;;;;;5058706;28;20450;-68
2021/12/02 03:41:38;;;;;;;7.43;6.10;;;;;;;;;;5055901;28;20478;-68
2021/12/02 03:44:04;;;;;;;6.60;5.82;;;;;;;;;;5057097;28;20411;-67
2021/12/02 03:46:29;;;;;;;6.00;5.00;;;;;;;;;;5055940;28;20530;-68
2021/12/02 03:48:55;;;;;;;5.70;5.10;;;;;;;;;;5053194;28;20426;-67
2021/12/02 03:51:21;;;;;;;8.93;7.40;;;;;;;;;;5052132;28;20399;-69
2021/12/02 03:53:47;;;;;;;9.47;7.90;;;;;;;;;;5055108;28;20442;-67
2021/12/02 03:56:12;;;;;;;8.83;7.43;;;;;;;;;;5055907;28;20415;-67
2021/12/02 03:58:39;;;;;;;7.33;6.30;;;;;;;;;;5057392;28;20761;-68
2021/12/02 04:01:05;;;;;;;7.80;6.73;;;;;;;;;;5056241;28;20818;-68
2021/12/02 04:03:31;;;;;;;7.05;6.35;;;;;;;;;;5056671;28;20418;-68
2021/12/02 04:05:56;;;;;;;6.30;5.70;;;;;;;;;;5056768;28;20419;-67
2021/12/02 04:08:29;;;;;;;7.27;6.07;;;;;;;;;;5055004;28;20427;-67
2021/12/02 04:10:59;;;;;;;6.38;5.75;;;;;;;;;;5054956;28;20457;-67
2021/12/02 04:13:29;;;;;;;8.73;7.72;;;;;;;;;;5035866;28;20921;-67
2021/12/02 04:16:00;;;;;;;9.10;8.07;;;;;;;;;;5054161;28;20909;-67
2021/12/02 04:18:25;;;;;;;9.68;8.05;;;;;;;;;;5054367;28;20391;-67
2021/12/02 04:20:51;;;;;;;9.03;7.93;;;;;;;;;;5056641;28;20563;-67
2021/12/02 04:23:16;;;;;;;10.30;9.10;;;;;;;;;;5057226;28;20412;-68
2021/12/02 04:25:41;;;;;;;8.87;7.97;;;;;;;;;;5057485;28;20418;-67
2021/12/02 04:28:07;;;;;;;9.77;8.70;;;;;;;;;;5057045;28;20419;-67
2021/12/02 04:30:32;;;;;;;8.10;7.13;;;;;;;;;;5056888;28;20423;-68
2021/12/02 04:32:57;;;;;;;8.88;7.57;;;;;;;;;;5056766;28;20490;-67
2021/12/02 04:35:23;;;;;;;8.47;7.57;;;;;;;;;;5058012;28;20415;-68
2021/12/02 04:37:51;;;;;;;9.57;8.40;;;;;;;;;;5057600;28;20499;-68
2021/12/02 04:40:18;;;;;;;8.60;7.60;;;;;;;;;;5054721;28;20395;-67
2021/12/02 04:42:44;;;;;;;15.73;12.97;;;;;;;;;;5051624;28;20415;-68
2021/12/02 04:45:10;;;;;;;16.13;12.70;;;;;;;;;;5052582;28;20407;-67
2021/12/02 04:47:35;;;;;;;16.23;12.90;;;;;;;;;;5053720;28;20893;-67
2021/12/02 04:50:00;;;;;;;16.58;13.13;;;;;;;;;;5055495;28;20411;-67
2021/12/02 04:52:26;;;;;;;27.97;19.27;;;;;;;;;;5055114;28;20973;-67
2021/12/02 04:54:51;;;;;;;19.43;14.70;;;;;;;;;;5054218;28;20407;-67
2021/12/02 04:57:17;;;;;;;16.87;13.80;;;;;;;;;;5053898;28;20391;-67
2021/12/02 04:59:42;;;;;;;12.67;10.73;;;;;;;;;;5053536;28;20443;-67
2021/12/02 05:02:07;;;;;;;11.38;10.00;;;;;;;;;;5053910;28;20781;-67
2021/12/02 05:04:33;;;;;;;12.73;10.30;;;;;;;;;;5051706;28;20403;-65
2021/12/02 05:07:00;;;;;;;19.70;17.20;;;;;;;;;;5053417;28;25582;-66
2021/12/02 05:09:26;;;;;;;18.07;15.23;;;;;;;;;;5054063;28;20422;-66
2021/12/02 05:11:51;;;;;;;14.03;12.20;;;;;;;;;;5055393;28;20851;-66
2021/12/02 05:14:16;;;;;;;13.53;11.50;;;;;;;;;;5051682;28;20409;-67
2021/12/02 05:16:42;;;;;;;12.47;10.83;;;;;;;;;;5076337;28;20925;-66
2021/12/02 05:19:07;;;;;;;12.23;10.90;;;;;;;;;;5076122;28;20474;-67
2021/12/02 05:21:33;;;;;;;11.40;10.07;;;;;;;;;;5075585;28;20414;-67
2021/12/02 05:23:58;;;;;;;9.67;8.67;;;;;;;;;;5075987;28;20529;-66
2021/12/02 05:26:24;;;;;;;9.43;8.33;;;;;;;;;;5073230;28;20461;-66
2021/12/02 05:28:50;;;;;;;11.97;9.57;;;;;;;;;;5060457;28;20925;-67
2021/12/02 05:31:16;;;;;;;11.70;9.40;;;;;;;;;;5074747;28;20402;-67
2021/12/02 05:33:41;;;;;;;10.35;8.77;;;;;;;;;;5074172;28;20755;-66
2021/12/02 05:36:07;;;;;;;11.33;9.90;;;;;;;;;;5073467;28;20389;-67
2021/12/02 05:38:32;;;;;;;11.27;9.93;;;;;;;;;;5074156;28;20402;-67
2021/12/02 05:40:57;;;;;;;10.27;9.00;;;;;;;;;;5076418;28;20441;-67
2021/12/02 05:43:22;;;;;;;10.73;9.63;;;;;;;;;;5074400;28;20406;-67
2021/12/02 05:45:48;;;;;;;10.63;9.40;;;;;;;;;;5071336;28;20432;-67
2021/12/02 05:48:13;;;;;;;13.87;12.43;;;;;;;;;;5072392;28;20520;-67
2021/12/02 05:50:39;;;;;;;14.00;12.60;;;;;;;;;;5072512;28;20445;-67
2021/12/02 05:53:04;;;;;;;13.23;11.63;;;;;;;;;;5075115;28;20436;-67
2021/12/02 05:55:29;;;;;;;11.53;10.43;;;;;;;;;;5073292;28;20394;-67
2021/12/02 05:57:55;;;;;;;12.17;10.73;;;;;;;;;;5074190;28;20473;-66
2021/12/02 06:00:20;;;;;;;13.70;12.20;;;;;;;;;;5077650;28;20463;-67
2021/12/02 06:02:45;;;;;;;11.83;10.20;;;;;;;;;;5078128;28;20385;-67
2021/12/02 06:05:16;;;;;;;13.65;11.38;;;;;;;;;;5077159;28;20460;-66
2021/12/02 06:07:42;;;;;;;12.20;10.98;;;;;;;;;;5076148;28;20861;-66
2021/12/02 06:10:26;;;;;;;12.87;10.73;;;;;;;;;;5077670;28;20483;-65
2021/12/02 06:12:51;;;;;;;12.65;10.98;;;;;;;;;;5080085;28;20445;-67
2021/12/02 06:15:17;;;;;;;11.20;8.90;;;;;;;;;;5075639;28;20394;-67
2021/12/02 06:17:43;;;;;;;12.65;10.27;;;;;;;;;;5076473;28;20414;-66
2021/12/02 06:20:09;;;;;;;14.10;12.00;;;;;;;;;;5077708;28;20413;-66
2021/12/02 06:22:35;;;;;;;14.80;12.80;;;;;;;;;;5076385;28;20571;-66
2021/12/02 06:27:31;;;;;;;14.98;13.20;;;;;;;;;;5075916;28;20402;-66
2021/12/02 06:29:57;;;;;;;15.03;13.43;;;;;;;;;;5076398;28;20433;-67
2021/12/02 06:32:22;;;;;;;13.47;11.90;;;;;;;;;;5076868;28;20393;-67
2021/12/02 06:34:47;;;;;;;29.07;22.07;;;;;;;;;;5079182;28;20397;-67
2021/12/02 06:37:13;;;;;;;19.90;16.23;;;;;;;;;;5078601;28;20405;-67
2021/12/02 06:39:38;;;;;;;18.00;14.37;;;;;;;;;;5079334;28;20436;-67
2021/12/02 06:42:03;;;;;;;16.03;12.83;;;;;;;;;;5078439;28;20493;-66
2021/12/02 06:44:29;;;;;;;13.70;11.67;;;;;;;;;;5074457;28;20425;-67
2021/12/02 06:46:55;;;;;;;13.80;11.30;;;;;;;;;;5077244;28;20477;-67
2021/12/02 06:49:21;;;;;;;13.88;11.80;;;;;;;;;;5074363;28;20433;-67
2021/12/02 06:51:46;;;;;;;12.33;10.77;;;;;;;;;;5077044;28;20479;-67
2021/12/02 06:54:11;;;;;;;15.45;11.57;;;;;;;;;;5078182;28;20919;-67
2021/12/02 06:56:37;;;;;;;13.03;10.50;;;;;;;;;;5078518;28;20396;-67
2021/12/02 06:59:02;;;;;;;18.60;14.93;;;;;;;;;;5078034;28;20480;-67
2021/12/02 07:01:27;;;;;;;20.60;16.77;;;;;;;;;;5078565;28;20400;-67
2021/12/02 07:03:53;;;;;;;18.17;15.70;;;;;;;;;;5075705;28;20429;-66
2021/12/02 07:06:18;;;;;;;18.53;14.73;;;;;;;;;;5075712;28;20413;-67
2021/12/02 07:08:43;;;;;;;16.27;13.10;;;;;;;;;;5077493;28;20480;-67
2021/12/02 07:11:10;;;;;;;18.23;14.03;;;;;;;;;;5076467;28;20425;-67
2021/12/02 07:13:38;;;;;;;14.88;11.73;;;;;;;;;;5078960;28;20398;-66
2021/12/02 07:16:03;;;;;;;11.50;10.23;;;;;;;;;;5077605;28;20496;-68
2021/12/02 07:18:29;;;;;;;11.18;9.95;;;;;;;;;;5092479;28;20918;-66
2021/12/02 07:20:54;;;;;;;15.47;12.00;;;;;;;;;;5076417;28;20496;-66
2021/12/02 07:23:21;;;;;;;19.80;15.15;;;;;;;;;;5078007;28;20394;-66
2021/12/02 07:25:46;;;;;;;21.87;16.37;;;;;;;;;;5076287;28;20437;-66
2021/12/02 07:28:13;;;;;;;21.83;17.10;;;;;;;;;;5075549;28;20406;-67
2021/12/02 07:30:39;;;;;;;18.40;14.63;;;;;;;;;;5075935;28;20389;-67
2021/12/02 07:33:04;;;;;;;15.55;12.73;;;;;;;;;;5075032;28;20401;-67
2021/12/02 07:35:30;;;;;;;15.70;12.38;;;;;;;;;;5075669;28;20448;-67
2021/12/02 07:37:59;;;;;;;13.90;11.60;;;;;;;;;;5076581;28;20406;-67
2021/12/02 07:40:26;;;;;;;16.25;12.93;;;;;;;;;;5075973;28;20891;-67
2021/12/02 07:42:52;;;;;;;13.52;11.52;;;;;;;;;;5075864;28;20394;-75
2021/12/02 07:45:18;;;;;;;13.88;11.25;;;;;;;;;;5073935;28;20397;-75
2021/12/02 07:47:44;;;;;;;11.33;10.13;;;;;;;;;;5075870;28;20561;-75
2021/12/02 07:50:10;;;;;;;10.67;9.23;;;;;;;;;;5073104;28;20468;-75
2021/12/02 07:52:39;;;;;;;10.55;8.98;;;;;;;;;;5074563;28;20489;-75
2021/12/02 07:55:07;;;;;;;8.95;7.68;;;;;;;;;;5075730;28;20394;-74
2021/12/02 07:57:36;;;;;;;10.07;8.32;;;;;;;;;;5076165;28;20413;-75
2021/12/02 08:00:03;;;;;;;12.00;10.70;;;;;;;;;;5075124;28;20443;-74
2021/12/02 08:02:33;;;;;;;12.90;10.77;;;;;;;;;;5075415;28;20401;-74
2021/12/02 08:04:58;;;;;;;12.52;10.85;;;;;;;;;;5075445;28;20904;-74
2021/12/02 08:07:23;;;;;;;11.50;9.83;;;;;;;;;;5075707;28;20421;-74
2021/12/02 08:09:48;;;;;;;8.77;7.87;;;;;;;;;;5076513;28;20417;-74
2021/12/02 08:12:14;;;;;;;10.03;8.47;;;;;;;;;;5076832;28;20493;-74
2021/12/02 08:14:39;;;;;;;9.40;8.27;;;;;;;;;;5076782;28;20406;-74
2021/12/02 08:17:04;;;;;;;10.87;8.73;;;;;;;;;;5077516;28;20957;-74
2021/12/02 08:19:30;;;;;;;10.30;8.80;;;;;;;;;;5076276;28;20421;-74
2021/12/02 08:21:55;;;;;;;10.43;9.23;;;;;;;;;;5073097;28;20405;-74
2021/12/02 08:24:23;;;;;;;9.30;7.97;;;;;;;;;;5073399;28;20493;-74
2021/12/02 08:26:49;;;;;;;13.18;10.52;;;;;;;;;;5091296;28;20930;-74
2021/12/02 08:29:14;;;;;;;11.88;10.38;;;;;;;;;;5075185;28;20488;-74
2021/12/02 08:31:39;;;;;;;12.50;10.00;;;;;;;;;;5074617;28;20406;-73
2021/12/02 08:34:05;;;;;;;9.80;8.80;;;;;;;;;;5073867;28;20412;-74
2021/12/02 08:36:41;;;;;;;9.40;8.40;;;;;;;;;;5073726;28;20410;-73
2021/12/02 08:39:08;;;;;;;10.70;9.70;;;;;;;;;;5072661;28;20394;-74
2021/12/02 08:41:33;;;;;;;10.50;9.50;;;;;;;;;;5074481;28;20408;-73
2021/12/02 08:43:58;;;;;;;10.20;9.20;;;;;;;;;;5075057;28;20405;-75
2021/12/02 08:46:26;;;;;;;11.73;10.27;;;;;;;;;;5077340;28;20449;-76
2021/12/02 08:48:53;;;;;;;9.25;8.35;;;;;;;;;;5077002;28;20461;-74
2021/12/02 08:51:18;;;;;;;9.00;8.10;;;;;;;;;;5075789;28;20444;-75
2021/12/02 08:53:43;;;;;;;9.20;8.30;;;;;;;;;;5075495;28;20453;-75
2021/12/02 08:56:09;;;;;;;7.80;7.00;;;;;;;;;;5073835;28;20413;-75
2021/12/02 08:58:36;;;;;;;8.50;7.60;;;;;;;;;;5074402;28;20398;-76
2021/12/02 09:01:01;;;;;;;9.23;8.25;;;;;;;;;;5074552;28;20409;-75
2021/12/02 09:03:27;;;;;;;9.27;8.27;;;;;;;;;;5074573;28;20417;-75
2021/12/02 09:05:52;;;;;;;11.40;9.27;;;;;;;;;;5073623;28;20851;-75
2021/12/02 09:08:19;;;;;;;11.65;8.75;;;;;;;;;;5074155;28;20466;-75
2021/12/02 09:10:45;;;;;;;7.93;7.13;;;;;;;;;;5076817;28;20394;-75
2021/12/02 09:13:10;;;;;;;9.33;8.30;;;;;;;;;;5072806;28;20500;-75
2021/12/02 09:15:37;;;;;;;9.57;8.00;;;;;;;;;;5072412;28;20441;-75
2021/12/02 09:18:02;;;;;;;8.90;7.65;;;;;;;;;;5076838;28;20906;-74
2021/12/02 09:20:28;;;;;;;11.73;9.93;;;;;;;;;;5077431;28;20481;-75
2021/12/02 09:22:53;;;;;;;11.80;9.70;;;;;;;;;;5073562;28;20488;-76
2021/12/02 09:25:19;;;;;;;12.90;10.60;;;;;;;;;;5073758;28;20474;-75
2021/12/02 09:27:45;;;;;;;12.83;9.90;;;;;;;;;;5075748;28;20463;-77
2021/12/02 09:30:11;;;;;;;10.18;9.18;;;;;;;;;;5073619;28;20425;-76
2021/12/02 09:32:37;;;;;;;12.57;10.50;;;;;;;;;;5075821;28;20432;-75
2021/12/02 09:35:02;;;;;;;13.80;10.63;;;;;;;;;;5078711;28;21135;-75
2021/12/02 09:37:28;;;;;;;11.57;9.80;;;;;;;;;;5080504;28;20933;-76
2021/12/02 09:39:53;;;;;;;11.43;9.43;;;;;;;;;;5076989;28;20862;-75
2021/12/02 09:42:19;;;;;;;10.10;8.93;;;;;;;;;;5076372;28;20402;-75
2021/12/02 09:44:47;;;;;;;10.82;9.70;;;;;;;;;;5076194;28;20409;-75
2021/12/02 09:47:13;;;;;;;13.15;10.20;;;;;;;;;;5080159;28;21031;-75
2021/12/02 09:49:38;;;;;;;14.50;11.50;;;;;;;;;;5077731;28;20402;-75
2021/12/02 09:52:08;;;;;;;13.37;10.90;;;;;;;;;;5078223;28;20843;-75
2021/12/02 09:54:47;;;;;;;14.88;12.45;;;;;;;;;;5078029;28;21228;-74
2021/12/02 09:57:16;;;;;;;12.25;10.93;;;;;;;;;;5076687;28;20394;-78
2021/12/02 10:02:09;;;;;;;13.68;12.07;;;;;;;;;;5076579;28;20406;-75
2021/12/02 10:04:40;;;;;;;12.97;11.57;;;;;;;;;;5080461;28;20406;-74
2021/12/02 10:07:13;;;;;;;16.38;13.50;;;;;;;;;;5080498;28;20408;-74
2021/12/02 10:09:49;;;;;;;14.38;12.52;;;;;;;;;;5076467;28;20421;-75
2021/12/02 10:12:16;;;;;;;14.27;12.77;;;;;;;;;;5076078;28;20398;-75
2021/12/02 10:14:48;;;;;;;13.85;12.35;;;;;;;;;;5080514;28;20575;-74
2021/12/02 10:22:40;;;;;;;14.95;12.40;;;;;;;;;;5078415;28;20358;-78
2021/12/02 10:25:06;;;;;;;11.98;10.60;;;;;;;;;;5093998;28;20421;-75
2021/12/02 10:27:31;;;;;;;11.63;9.50;;;;;;;;;;5079364;28;20409;-76
2021/12/02 10:29:57;;;;;;;11.00;9.73;;;;;;;;;;5079145;28;20489;-74
2021/12/02 10:32:25;;;;;;;11.03;9.33;;;;;;;;;;5079846;28;20452;-74
2021/12/02 10:34:51;;;;;;;11.27;9.87;;;;;;;;;;5077311;28;21021;-74
2021/12/02 10:37:20;;;;;;;9.93;8.93;;;;;;;;;;5077489;28;20415;-75
2021/12/02 10:39:57;;;;;;;10.20;9.18;;;;;;;;;;5077145;28;20463;-75
2021/12/02 10:42:23;;;;;;;12.07;10.77;;;;;;;;;;5077485;28;20410;-75
2021/12/02 10:44:48;;;;;;;11.80;10.48;;;;;;;;;;5077482;28;20406;-75
2021/12/02 10:47:15;;;;;;;10.47;9.37;;;;;;;;;;5077076;28;20822;-74
2021/12/02 10:49:42;;;;;;;11.27;9.98;;;;;;;;;;5077656;28;20402;-75
2021/12/02 10:52:10;;;;;;;11.60;10.40;;;;;;;;;;5076242;28;20416;-75
2021/12/02 10:54:36;;;;;;;11.63;10.27;;;;;;;;;;5075423;28;20411;-75
2021/12/02 10:57:12;;;;;;;13.93;11.50;;;;;;;;;;5074877;28;20401;-75
2021/12/02 10:59:41;;;;;;;13.40;11.73;;;;;;;;;;5075461;28;20413;-75
2021/12/02 11:02:08;;;;;;;14.20;11.77;;;;;;;;;;5079713;28;20409;-75
2021/12/02 11:04:38;;;;;;;13.88;12.35;;;;;;;;;;5078566;28;20922;-74
2021/12/02 11:07:09;;;;;;;14.32;12.27;;;;;;;;;;5078364;28;20394;-75
2021/12/02 11:09:34;;;;;;;13.95;11.65;;;;;;;;;;5092228;28;20394;-75
2021/12/02 11:12:08;;;;;;;12.43;10.65;;;;;;;;;;5075202;28;20452;-75
2021/12/02 11:14:34;;;;;;;10.75;8.95;;;;;;;;;;5077987;28;20833;-74
2021/12/02 11:17:06;;;;;;;10.05;9.02;;;;;;;;;;5077497;28;20439;-75
2021/12/02 11:19:31;;;;;;;12.10;10.40;;;;;;;;;;5077726;28;20409;-75
2021/12/02 11:22:07;;;;;;;13.13;10.10;;;;;;;;;;5079089;28;20408;-75
2021/12/02 11:24:33;;;;;;;10.68;9.13;;;;;;;;;;5075460;28;20830;-75
2021/12/02 11:27:09;;;;;;;9.88;8.88;;;;;;;;;;5072844;28;20931;-75
2021/12/02 11:29:47;;;;;;;10.98;9.25;;;;;;;;;;5074870;28;20417;-75
2021/12/02 11:32:33;;;;;;;11.35;9.32;;;;;;;;;;5078293;28;20417;-74
2021/12/02 11:35:09;;;;;;;9.77;8.48;;;;;;;;;;5077343;28;20765;-74
2021/12/02 11:37:36;;;;;;;9.35;7.95;;;;;;;;;;5076655;28;20402;-75
2021/12/02 11:40:04;;;;;;;9.75;8.75;;;;;;;;;;5077728;28;20484;-74
2021/12/02 11:42:29;;;;;;;10.65;9.27;;;;;;;;;;5074915;28;20398;-75
2021/12/02 11:44:55;;;;;;;9.60;8.40;;;;;;;;;;5074066;28;20406;-74
2021/12/02 11:47:20;;;;;;;7.40;6.38;;;;;;;;;;5078659;28;20444;-75
2021/12/02 11:49:46;;;;;;;8.83;7.20;;;;;;;;;;5078083;28;20426;-75
2021/12/02 11:52:12;;;;;;;7.32;6.40;;;;;;;;;;5075505;28;20463;-74
2021/12/02 11:54:38;;;;;;;6.90;6.15;;;;;;;;;;5074123;28;20402;-75
2021/12/02 11:57:03;;;;;;;7.87;6.30;;;;;;;;;;5075234;28;20772;-75
2021/12/02 11:59:28;;;;;;;6.50;5.80;;;;;;;;;;5076302;28;20393;-75
2021/12/02 12:01:57;;;;;;;9.57;7.80;;;;;;;;;;5077845;28;20413;-75
2021/12/02 12:04:22;;;;;;;9.52;7.60;;;;;;;;;;5074951;28;20413;-75
2021/12/02 12:07:06;;;;;;;7.80;6.57;;;;;;;;;;5073704;28;20413;-75
2021/12/02 12:09:32;;;;;;;6.85;6.10;;;;;;;;;;5075244;28;20950;-75
2021/12/02 12:11:57;;;;;;;7.20;6.30;;;;;;;;;;5074785;28;20421;-75
2021/12/02 12:14:36;;;;;;;7.40;5.90;;;;;;;;;;5075975;28;20410;-75
2021/12/02 12:17:09;;;;;;;7.60;6.47;;;;;;;;;;5076944;28;20398;-75
2021/12/02 12:19:38;;;;;;;8.00;7.07;;;;;;;;;;5077606;28;20394;-75
2021/12/02 12:22:08;;;;;;;8.05;7.25;;;;;;;;;;5076791;28;20401;-75
2021/12/02 12:24:42;;;;;;;8.82;7.88;;;;;;;;;;5075078;28;20405;-75
2021/12/02 12:27:20;;;;;;;8.70;7.70;;;;;;;;;;5077646;28;20481;-75
2021/12/02 12:30:19;;;;;;;7.82;6.65;;;;;;;;;;5075404;28;20405;-75
2021/12/02 12:33:10;;;;;;;6.25;5.30;;;;;;;;;;5075336;28;20396;-75
2021/12/02 12:38:18;;;;;;;6.70;6.00;;;;;;;;;;5074118;28;20398;-75
2021/12/02 12:40:45;;;;;;;8.80;7.25;;;;;;;;;;5078088;28;20405;-75
2021/12/02 12:43:11;;;;;;;8.35;7.53;;;;;;;;;;5077072;28;20405;-75
2021/12/02 12:45:41;;;;;;;8.57;7.67;;;;;;;;;;5074901;28;20402;-75
2021/12/02 12:48:08;;;;;;;9.20;7.60;;;;;;;;;;5076568;28;20454;-73
2021/12/02 12:50:36;;;;;;;8.90;7.32;;;;;;;;;;5076134;28;20409;-75
2021/12/02 12:53:05;;;;;;;7.10;5.93;;;;;;;;;;5074364;28;20386;-76
2021/12/02 12:55:34;;;;;;;8.52;6.03;;;;;;;;;;5076431;28;20420;-73
2021/12/02 12:58:12;;;;;;;6.95;6.13;;;;;;;;;;5075921;28;20389;-74
2021/12/02 13:00:37;;;;;;;6.22;5.28;;;;;;;;;;5077315;28;20431;-74
2021/12/02 13:03:17;;;;;;;4.47;4.07;;;;;;;;;;5077316;28;20510;-73
2021/12/02 13:05:51;;;;;;;5.45;4.72;;;;;;;;;;5072751;28;20418;-75
2021/12/02 13:08:18;;;;;;;6.07;5.40;;;;;;;;;;5073796;28;20394;-73
2021/12/02 13:10:54;;;;;;;7.10;5.70;;;;;;;;;;5075489;28;20401;-73
2021/12/02 13:13:32;;;;;;;7.20;5.80;;;;;;;;;;5073478;28;20429;-73
2021/12/02 13:16:14;;;;;;;8.48;7.57;;;;;;;;;;5076737;28;20409;-73
2021/12/02 13:18:40;;;;;;;8.63;7.22;;;;;;;;;;5074032;28;20398;-73
2021/12/02 13:21:21;;;;;;;8.90;7.70;;;;;;;;;;5077064;28;20838;-73
2021/12/02 13:23:59;;;;;;;8.52;7.15;;;;;;;;;;5077249;28;20489;-74
2021/12/02 13:26:31;;;;;;;7.60;6.80;;;;;;;;;;5074200;28;20421;-74
2021/12/02 13:28:59;;;;;;;8.88;7.97;;;;;;;;;;5073753;28;20954;-74
2021/12/02 13:31:26;;;;;;;8.52;7.63;;;;;;;;;;5077559;28;20937;-74
2021/12/02 13:33:52;;;;;;;7.70;6.90;;;;;;;;;;5076018;28;20436;-75
2021/12/02 13:36:21;;;;;;;8.57;7.20;;;;;;;;;;5074035;28;20792;-75
2021/12/02 13:39:02;;;;;;;5.95;5.18;;;;;;;;;;5077283;28;20899;-75
2021/12/02 13:41:28;;;;;;;6.03;5.40;;;;;;;;;;5076838;28;20405;-75
2021/12/02 13:43:53;;;;;;;6.03;5.43;;;;;;;;;;5075627;28;20812;-75
2021/12/02 13:46:27;;;;;;;12.30;10.83;;;;;;;;;;5076162;28;20520;-75
2021/12/02 13:48:54;;;;;;;17.08;15.27;;;;;;;;;;5073550;28;20402;-75
2021/12/02 13:54:20;;;;;;;16.08;14.38;;;;;;;;;;5074684;28;20925;-75
2021/12/02 13:56:45;;;;;;;16.50;14.53;;;;;;;;;;5074854;28;20410;-75
2021/12/02 13:59:15;;;;;;;19.47;17.37;;;;;;;;;;5076281;28;20507;-74
2021/12/02 14:01:57;;;;;;;17.20;15.18;;;;;;;;;;5074963;28;20456;-75
2021/12/02 14:04:24;;;;;;;13.65;12.23;;;;;;;;;;5075826;28;20414;-75
2021/12/02 14:07:07;;;;;;;10.07;8.90;;;;;;;;;;5076326;28;20409;-75
2021/12/02 14:09:41;;;;;;;8.98;8.07;;;;;;;;;;5072346;28;20452;-75
2021/12/02 14:12:07;;;;;;;8.23;7.43;;;;;;;;;;5072807;28;20425;-75
2021/12/02 14:14:33;;;;;;;8.03;7.20;;;;;;;;;;5072291;28;20500;-75
2021/12/02 14:17:05;;;;;;;7.28;6.57;;;;;;;;;;5072913;28;20413;-75
2021/12/02 14:19:30;;;;;;;7.28;6.57;;;;;;;;;;5072217;28;20400;-74
2021/12/02 14:21:55;;;;;;;9.80;8.80;;;;;;;;;;5077138;28;20397;-75
2021/12/02 14:24:21;;;;;;;11.00;9.70;;;;;;;;;;5075993;28;20405;-74
2021/12/02 14:26:46;;;;;;;11.67;10.47;;;;;;;;;;5079028;28;20436;-74
2021/12/02 14:29:13;;;;;;;11.30;10.10;;;;;;;;;;5078840;28;20417;-71
2021/12/02 14:31:39;;;;;;;17.90;14.30;;;;;;;;;;5080233;28;20468;-74
2021/12/02 14:34:05;;;;;;;24.27;19.33;;;;;;;;;;5080269;28;20417;-74
2021/12/02 14:36:39;;;;;;;39.30;27.67;;;;;;;;;;5079250;28;20483;-74
2021/12/02 14:39:05;;;;;;;31.27;24.50;;;;;;;;;;5076105;28;20404;-74
2021/12/02 14:41:32;;;;;;;25.17;20.85;;;;;;;;;;5078945;28;20459;-76
2021/12/02 14:44:05;;;;;;;20.70;17.90;;;;;;;;;;5077695;28;20477;-76
2021/12/02 14:46:31;;;;;;;19.65;16.92;;;;;;;;;;5074047;28;20429;-76
2021/12/02 14:49:00;;;;;;;23.20;20.70;;;;;;;;;;5076532;28;20394;-74
2021/12/02 14:51:25;;;;;;;20.33;18.15;;;;;;;;;;5079231;28;20428;-73
2021/12/02 14:53:55;;;;;;;17.90;15.67;;;;;;;;;;5076402;28;20780;-74
2021/12/02 14:56:32;;;;;;;16.57;14.87;;;;;;;;;;5076189;28;20398;-74
2021/12/02 14:59:16;;;;;;;17.85;15.50;;;;;;;;;;5079866;28;20381;-74
2021/12/02 15:01:56;;;;;;;16.15;14.45;;;;;;;;;;5076944;28;20405;-74
2021/12/02 15:04:23;;;;;;;15.45;13.65;;;;;;;;;;5078059;28;20401;-73